sensor_id;sensor_type;location;lat;lon;timestamp;temperature;humidity
1011;DHT22;494;48.744;10.106;2022-12-24T00:01:37;11.50;58.70
1011;DHT22;494;48.744;10.106;2022-12-24T00:04:05;11.60;58.50
1011;DHT22;494;48.744;10.106;2022-12-24T00:06:34;11.50;57.30
1011;DHT22;494;48.744;10.106;2022-12-24T00:09:03;11.50;57.00
1011;DHT22;494;48.744;10.106;2022-12-24T00:11:32;11.40;57.10
1011;DHT22;494;48.744;10.106;2022-12-24T00:14:00;11.50;56.60
1011;DHT22;494;48.744;10.106;2022-12-24T00:16:29;11.50;56.60
1011;DHT22;494;48.744;10.106;2022-12-24T00:18:59;11.40;57.30
1011;DHT22;494;48.744;10.106;2022-12-24T00:21:28;11.50;57.50
1011;DHT22;494;48.744;10.106;2022-12-24T00:23:57;11.40;57.30
1011;DHT22;494;48.744;10.106;2022-12-24T00:26:26;11.40;57.10
1011;DHT22;494;48.744;10.106;2022-12-24T00:28:55;11.50;57.00
1011;DHT22;494;48.744;10.106;2022-12-24T00:31:23;11.40;55.20
1011;DHT22;494;48.744;10.106;2022-12-24T00:33:52;11.50;56.20
1011;DHT22;494;48.744;10.106;2022-12-24T00:36:22;11.60;55.20
1011;DHT22;494;48.744;10.106;2022-12-24T00:38:51;11.70;54.70
1011;DHT22;494;48.744;10.106;2022-12-24T00:41:19;11.70;54.00
1011;DHT22;494;48.744;10.106;2022-12-24T00:43:57;11.60;53.90
1011;DHT22;494;48.744;10.106;2022-12-24T00:46:28;11.50;54.70
1011;DHT22;494;48.744;10.106;2022-12-24T00:48:58;11.50;54.10
1011;DHT22;494;48.744;10.106;2022-12-24T00:51:29;11.60;54.60
1011;DHT22;494;48.744;10.106;2022-12-24T00:53:58;11.60;53.80
1011;DHT22;494;48.744;10.106;2022-12-24T00:56:27;11.70;53.90
1011;DHT22;494;48.744;10.106;2022-12-24T00:58:56;11.80;53.80
1011;DHT22;494;48.744;10.106;2022-12-24T01:01:25;11.80;53.00
1011;DHT22;494;48.744;10.106;2022-12-24T01:03:55;11.80;53.00
1011;DHT22;494;48.744;10.106;2022-12-24T01:06:45;11.70;53.00
1011;DHT22;494;48.744;10.106;2022-12-24T01:09:14;11.70;52.70
1011;DHT22;494;48.744;10.106;2022-12-24T01:11:43;11.70;52.50
1011;DHT22;494;48.744;10.106;2022-12-24T01:14:12;11.70;52.30
1011;DHT22;494;48.744;10.106;2022-12-24T01:16:40;11.70;53.00
1011;DHT22;494;48.744;10.106;2022-12-24T01:19:09;11.60;51.70
1011;DHT22;494;48.744;10.106;2022-12-24T01:21:37;11.60;52.50
1011;DHT22;494;48.744;10.106;2022-12-24T01:24:12;11.70;52.20
1011;DHT22;494;48.744;10.106;2022-12-24T01:26:42;11.70;52.10
1011;DHT22;494;48.744;10.106;2022-12-24T01:29:11;11.60;52.10
1011;DHT22;494;48.744;10.106;2022-12-24T01:31:39;11.60;51.70
1011;DHT22;494;48.744;10.106;2022-12-24T01:34:08;11.50;51.50
1011;DHT22;494;48.744;10.106;2022-12-24T01:36:37;11.60;51.60
1011;DHT22;494;48.744;10.106;2022-12-24T01:39:07;11.50;51.40
1011;DHT22;494;48.744;10.106;2022-12-24T01:41:36;11.50;51.10
1011;DHT22;494;48.744;10.106;2022-12-24T01:44:24;11.40;51.70
1011;DHT22;494;48.744;10.106;2022-12-24T01:47:05;11.50;51.10
1011;DHT22;494;48.744;10.106;2022-12-24T01:49:42;11.70;51.10
1011;DHT22;494;48.744;10.106;2022-12-24T01:52:20;11.70;50.20
1011;DHT22;494;48.744;10.106;2022-12-24T01:54:53;11.70;49.90
1011;DHT22;494;48.744;10.106;2022-12-24T01:57:28;11.60;49.80
1011;DHT22;494;48.744;10.106;2022-12-24T02:00:02;11.60;49.40
1011;DHT22;494;48.744;10.106;2022-12-24T02:02:33;11.50;50.50
1011;DHT22;494;48.744;10.106;2022-12-24T02:05:07;11.60;50.80
1011;DHT22;494;48.744;10.106;2022-12-24T02:07:40;11.70;50.50
1011;DHT22;494;48.744;10.106;2022-12-24T02:10:12;11.70;50.60
1011;DHT22;494;48.744;10.106;2022-12-24T02:12:42;11.60;51.10
1011;DHT22;494;48.744;10.106;2022-12-24T02:15:13;11.40;51.70
1011;DHT22;494;48.744;10.106;2022-12-24T02:17:51;11.50;52.20
1011;DHT22;494;48.744;10.106;2022-12-24T02:20:42;11.50;52.60
1011;DHT22;494;48.744;10.106;2022-12-24T02:23:48;11.60;52.70
1011;DHT22;494;48.744;10.106;2022-12-24T02:26:47;11.60;52.50
1011;DHT22;494;48.744;10.106;2022-12-24T02:29:50;11.70;53.20
1011;DHT22;494;48.744;10.106;2022-12-24T02:32:42;11.80;53.00
1011;DHT22;494;48.744;10.106;2022-12-24T02:35:27;11.90;52.90
1011;DHT22;494;48.744;10.106;2022-12-24T02:38:09;11.80;53.10
1011;DHT22;494;48.744;10.106;2022-12-24T02:40:45;11.80;53.40
1011;DHT22;494;48.744;10.106;2022-12-24T02:43:20;11.60;53.80
1011;DHT22;494;48.744;10.106;2022-12-24T02:45:56;11.60;54.50
1011;DHT22;494;48.744;10.106;2022-12-24T02:48:27;11.50;55.30
1011;DHT22;494;48.744;10.106;2022-12-24T02:51:01;11.40;55.40
1011;DHT22;494;48.744;10.106;2022-12-24T02:53:33;11.10;57.00
1011;DHT22;494;48.744;10.106;2022-12-24T02:56:26;10.90;57.80
1011;DHT22;494;48.744;10.106;2022-12-24T02:59:18;10.60;58.90
1011;DHT22;494;48.744;10.106;2022-12-24T03:02:08;10.40;60.40
1011;DHT22;494;48.744;10.106;2022-12-24T03:04:49;10.40;61.00
1011;DHT22;494;48.744;10.106;2022-12-24T03:07:28;10.40;60.90
1011;DHT22;494;48.744;10.106;2022-12-24T03:10:11;10.30;61.80
1011;DHT22;494;48.744;10.106;2022-12-24T03:12:46;10.20;62.00
1011;DHT22;494;48.744;10.106;2022-12-24T03:15:19;10.20;63.00
1011;DHT22;494;48.744;10.106;2022-12-24T03:17:54;10.30;63.10
1011;DHT22;494;48.744;10.106;2022-12-24T03:20:31;10.40;62.80
1011;DHT22;494;48.744;10.106;2022-12-24T03:23:03;10.40;61.80
1011;DHT22;494;48.744;10.106;2022-12-24T03:25:33;10.50;61.80
1011;DHT22;494;48.744;10.106;2022-12-24T03:28:06;10.70;60.80
1011;DHT22;494;48.744;10.106;2022-12-24T03:30:39;10.70;60.50
1011;DHT22;494;48.744;10.106;2022-12-24T03:33:11;10.70;60.20
1011;DHT22;494;48.744;10.106;2022-12-24T03:35:41;10.70;60.00
1011;DHT22;494;48.744;10.106;2022-12-24T03:38:10;10.80;60.00
1011;DHT22;494;48.744;10.106;2022-12-24T03:40:39;10.90;59.70
1011;DHT22;494;48.744;10.106;2022-12-24T03:43:07;11.00;58.80
1011;DHT22;494;48.744;10.106;2022-12-24T03:45:36;10.80;58.80
1011;DHT22;494;48.744;10.106;2022-12-24T03:48:05;10.80;59.30
1011;DHT22;494;48.744;10.106;2022-12-24T03:50:36;10.80;59.50
1011;DHT22;494;48.744;10.106;2022-12-24T03:53:05;10.70;59.10
1011;DHT22;494;48.744;10.106;2022-12-24T03:55:33;10.90;58.90
1011;DHT22;494;48.744;10.106;2022-12-24T03:58:02;10.90;58.00
1011;DHT22;494;48.744;10.106;2022-12-24T04:00:31;10.90;58.20
1011;DHT22;494;48.744;10.106;2022-12-24T04:03:00;10.80;58.00
1011;DHT22;494;48.744;10.106;2022-12-24T04:05:29;10.80;58.20
1011;DHT22;494;48.744;10.106;2022-12-24T04:07:59;10.80;58.10
1011;DHT22;494;48.744;10.106;2022-12-24T04:10:27;10.90;58.30
1011;DHT22;494;48.744;10.106;2022-12-24T04:12:56;10.90;58.10
1011;DHT22;494;48.744;10.106;2022-12-24T04:15:25;11.00;57.70
1011;DHT22;494;48.744;10.106;2022-12-24T04:17:54;11.20;57.50
1011;DHT22;494;48.744;10.106;2022-12-24T04:20:22;11.20;56.80
1011;DHT22;494;48.744;10.106;2022-12-24T04:22:52;11.20;56.40
1011;DHT22;494;48.744;10.106;2022-12-24T04:25:22;11.30;56.10
1011;DHT22;494;48.744;10.106;2022-12-24T04:27:51;11.30;55.50
1011;DHT22;494;48.744;10.106;2022-12-24T04:30:19;11.30;55.10
1011;DHT22;494;48.744;10.106;2022-12-24T04:32:48;11.30;55.30
1011;DHT22;494;48.744;10.106;2022-12-24T04:35:17;11.40;55.00
1011;DHT22;494;48.744;10.106;2022-12-24T04:37:46;11.40;55.00
1011;DHT22;494;48.744;10.106;2022-12-24T04:40:14;11.40;54.80
1011;DHT22;494;48.744;10.106;2022-12-24T04:42:44;11.30;54.80
1011;DHT22;494;48.744;10.106;2022-12-24T04:45:13;11.30;54.80
1011;DHT22;494;48.744;10.106;2022-12-24T04:47:42;11.30;54.70
1011;DHT22;494;48.744;10.106;2022-12-24T04:50:11;11.30;54.70
1011;DHT22;494;48.744;10.106;2022-12-24T04:52:40;11.30;54.80
1011;DHT22;494;48.744;10.106;2022-12-24T04:55:09;11.30;54.80
1011;DHT22;494;48.744;10.106;2022-12-24T04:57:38;11.30;54.80
1011;DHT22;494;48.744;10.106;2022-12-24T05:00:10;11.30;55.00
1011;DHT22;494;48.744;10.106;2022-12-24T05:02:40;11.30;55.00
1011;DHT22;494;48.744;10.106;2022-12-24T05:05:09;11.20;54.80
1011;DHT22;494;48.744;10.106;2022-12-24T05:07:37;11.10;55.30
1011;DHT22;494;48.744;10.106;2022-12-24T05:10:07;11.10;55.50
1011;DHT22;494;48.744;10.106;2022-12-24T05:12:37;11.20;55.50
1011;DHT22;494;48.744;10.106;2022-12-24T05:15:07;11.20;55.40
1011;DHT22;494;48.744;10.106;2022-12-24T05:17:37;11.10;55.50
1011;DHT22;494;48.744;10.106;2022-12-24T05:20:07;11.00;56.30
1011;DHT22;494;48.744;10.106;2022-12-24T05:22:35;10.90;56.50
1011;DHT22;494;48.744;10.106;2022-12-24T05:25:22;10.90;56.70
1011;DHT22;494;48.744;10.106;2022-12-24T05:28:07;10.90;56.60
1011;DHT22;494;48.744;10.106;2022-12-24T05:30:37;10.90;56.70
1011;DHT22;494;48.744;10.106;2022-12-24T05:33:06;10.90;56.90
1011;DHT22;494;48.744;10.106;2022-12-24T05:35:35;10.90;57.10
1011;DHT22;494;48.744;10.106;2022-12-24T05:38:03;10.80;57.20
1011;DHT22;494;48.744;10.106;2022-12-24T05:40:32;10.90;57.30
1011;DHT22;494;48.744;10.106;2022-12-24T05:43:01;10.90;57.20
1011;DHT22;494;48.744;10.106;2022-12-24T05:45:33;10.90;57.20
1011;DHT22;494;48.744;10.106;2022-12-24T05:48:03;11.00;56.90
1011;DHT22;494;48.744;10.106;2022-12-24T05:50:34;10.90;56.90
1011;DHT22;494;48.744;10.106;2022-12-24T05:53:04;10.90;57.00
1011;DHT22;494;48.744;10.106;2022-12-24T05:55:33;10.80;57.70
1011;DHT22;494;48.744;10.106;2022-12-24T05:58:02;10.70;58.10
1011;DHT22;494;48.744;10.106;2022-12-24T06:00:31;10.90;58.10
1011;DHT22;494;48.744;10.106;2022-12-24T06:03:00;10.80;57.90
1011;DHT22;494;48.744;10.106;2022-12-24T06:05:31;10.90;57.80
1011;DHT22;494;48.744;10.106;2022-12-24T06:08:01;10.90;57.60
1011;DHT22;494;48.744;10.106;2022-12-24T06:10:30;10.90;57.50
1011;DHT22;494;48.744;10.106;2022-12-24T06:12:59;11.00;57.20
1011;DHT22;494;48.744;10.106;2022-12-24T06:15:28;11.00;56.90
1011;DHT22;494;48.744;10.106;2022-12-24T06:17:57;10.90;56.70
1011;DHT22;494;48.744;10.106;2022-12-24T06:20:27;10.80;56.70
1011;DHT22;494;48.744;10.106;2022-12-24T06:22:56;10.80;57.00
1011;DHT22;494;48.744;10.106;2022-12-24T06:25:24;10.80;56.80
1011;DHT22;494;48.744;10.106;2022-12-24T06:27:53;10.80;56.70
1011;DHT22;494;48.744;10.106;2022-12-24T06:30:24;10.70;56.40
1011;DHT22;494;48.744;10.106;2022-12-24T06:32:53;10.70;56.70
1011;DHT22;494;48.744;10.106;2022-12-24T06:35:21;10.60;56.60
1011;DHT22;494;48.744;10.106;2022-12-24T06:37:53;10.60;56.80
1011;DHT22;494;48.744;10.106;2022-12-24T06:40:22;10.60;56.90
1011;DHT22;494;48.744;10.106;2022-12-24T06:42:51;10.50;56.60
1011;DHT22;494;48.744;10.106;2022-12-24T06:45:19;10.50;56.30
1011;DHT22;494;48.744;10.106;2022-12-24T06:47:49;10.40;56.40
1011;DHT22;494;48.744;10.106;2022-12-24T06:50:19;10.30;56.70
1011;DHT22;494;48.744;10.106;2022-12-24T06:52:50;10.30;56.90
1011;DHT22;494;48.744;10.106;2022-12-24T06:55:20;10.30;56.80
1011;DHT22;494;48.744;10.106;2022-12-24T06:57:49;10.30;56.60
1011;DHT22;494;48.744;10.106;2022-12-24T07:00:19;10.30;56.70
1011;DHT22;494;48.744;10.106;2022-12-24T07:02:49;10.30;56.20
1011;DHT22;494;48.744;10.106;2022-12-24T07:05:18;10.30;55.90
1011;DHT22;494;48.744;10.106;2022-12-24T07:07:47;10.30;55.60
1011;DHT22;494;48.744;10.106;2022-12-24T07:10:17;10.20;55.20
1011;DHT22;494;48.744;10.106;2022-12-24T07:12:49;10.10;54.70
1011;DHT22;494;48.744;10.106;2022-12-24T07:15:18;10.00;54.50
1011;DHT22;494;48.744;10.106;2022-12-24T07:17:47;9.90;55.00
1011;DHT22;494;48.744;10.106;2022-12-24T07:20:16;9.90;55.30
1011;DHT22;494;48.744;10.106;2022-12-24T07:22:45;9.90;55.10
1011;DHT22;494;48.744;10.106;2022-12-24T07:25:15;9.90;54.80
1011;DHT22;494;48.744;10.106;2022-12-24T07:27:43;9.90;54.40
1011;DHT22;494;48.744;10.106;2022-12-24T07:30:14;9.80;54.90
1011;DHT22;494;48.744;10.106;2022-12-24T07:32:43;9.80;54.00
1011;DHT22;494;48.744;10.106;2022-12-24T07:35:12;9.80;54.00
1011;DHT22;494;48.744;10.106;2022-12-24T07:37:40;9.80;53.90
1011;DHT22;494;48.744;10.106;2022-12-24T07:40:10;9.70;54.00
1011;DHT22;494;48.744;10.106;2022-12-24T07:42:39;9.70;54.00
1011;DHT22;494;48.744;10.106;2022-12-24T07:45:08;9.70;54.70
1011;DHT22;494;48.744;10.106;2022-12-24T07:47:39;9.60;54.70
1011;DHT22;494;48.744;10.106;2022-12-24T07:50:08;9.50;55.00
1011;DHT22;494;48.744;10.106;2022-12-24T07:52:37;9.50;55.60
1011;DHT22;494;48.744;10.106;2022-12-24T07:55:06;9.50;56.00
1011;DHT22;494;48.744;10.106;2022-12-24T07:57:35;9.50;56.20
1011;DHT22;494;48.744;10.106;2022-12-24T08:00:05;9.60;56.20
1011;DHT22;494;48.744;10.106;2022-12-24T08:02:38;9.60;55.80
1011;DHT22;494;48.744;10.106;2022-12-24T08:05:08;9.60;56.00
1011;DHT22;494;48.744;10.106;2022-12-24T08:07:36;9.70;56.00
1011;DHT22;494;48.744;10.106;2022-12-24T08:10:06;9.70;55.60
1011;DHT22;494;48.744;10.106;2022-12-24T08:12:35;9.70;55.80
1011;DHT22;494;48.744;10.106;2022-12-24T08:15:05;9.80;56.10
1011;DHT22;494;48.744;10.106;2022-12-24T08:17:34;9.90;56.10
1011;DHT22;494;48.744;10.106;2022-12-24T08:20:05;9.90;55.80
1011;DHT22;494;48.744;10.106;2022-12-24T08:22:35;9.90;55.80
1011;DHT22;494;48.744;10.106;2022-12-24T08:25:04;9.90;56.00
1011;DHT22;494;48.744;10.106;2022-12-24T08:27:33;10.00;56.00
1011;DHT22;494;48.744;10.106;2022-12-24T08:30:02;10.00;56.00
1011;DHT22;494;48.744;10.106;2022-12-24T08:32:31;10.10;56.00
1011;DHT22;494;48.744;10.106;2022-12-24T08:34:59;10.10;56.40
1011;DHT22;494;48.744;10.106;2022-12-24T08:37:30;10.20;56.60
1011;DHT22;494;48.744;10.106;2022-12-24T08:39:58;10.30;57.20
1011;DHT22;494;48.744;10.106;2022-12-24T08:42:27;10.40;56.90
1011;DHT22;494;48.744;10.106;2022-12-24T08:44:55;10.40;56.60
1011;DHT22;494;48.744;10.106;2022-12-24T08:47:24;10.50;56.90
1011;DHT22;494;48.744;10.106;2022-12-24T08:49:52;10.60;56.80
1011;DHT22;494;48.744;10.106;2022-12-24T08:52:21;10.70;56.70
1011;DHT22;494;48.744;10.106;2022-12-24T08:54:51;10.70;56.70
1011;DHT22;494;48.744;10.106;2022-12-24T08:57:19;10.80;56.90
1011;DHT22;494;48.744;10.106;2022-12-24T08:59:48;10.90;56.60
1011;DHT22;494;48.744;10.106;2022-12-24T09:02:17;10.90;56.00
1011;DHT22;494;48.744;10.106;2022-12-24T09:04:47;11.00;55.90
1011;DHT22;494;48.744;10.106;2022-12-24T09:07:16;11.10;56.00
1011;DHT22;494;48.744;10.106;2022-12-24T09:09:45;11.30;56.10
1011;DHT22;494;48.744;10.106;2022-12-24T09:12:15;11.30;54.90
1011;DHT22;494;48.744;10.106;2022-12-24T09:14:44;11.40;54.60
1011;DHT22;494;48.744;10.106;2022-12-24T09:17:12;11.40;54.60
1011;DHT22;494;48.744;10.106;2022-12-24T09:19:41;11.40;54.40
1011;DHT22;494;48.744;10.106;2022-12-24T09:22:09;11.40;53.10
1011;DHT22;494;48.744;10.106;2022-12-24T09:24:38;11.40;52.90
1011;DHT22;494;48.744;10.106;2022-12-24T09:27:06;11.40;53.00
1011;DHT22;494;48.744;10.106;2022-12-24T09:29:36;11.50;52.80
1011;DHT22;494;48.744;10.106;2022-12-24T09:32:06;11.50;52.80
1011;DHT22;494;48.744;10.106;2022-12-24T09:34:35;11.50;51.90
1011;DHT22;494;48.744;10.106;2022-12-24T09:37:04;11.50;52.00
1011;DHT22;494;48.744;10.106;2022-12-24T09:39:32;11.50;51.60
1011;DHT22;494;48.744;10.106;2022-12-24T09:42:06;11.40;51.00
1011;DHT22;494;48.744;10.106;2022-12-24T09:44:52;11.40;51.40
1011;DHT22;494;48.744;10.106;2022-12-24T09:47:28;11.60;51.60
1011;DHT22;494;48.744;10.106;2022-12-24T09:50:26;12.20;52.90
1011;DHT22;494;48.744;10.106;2022-12-24T09:53:14;13.10;51.50
1011;DHT22;494;48.744;10.106;2022-12-24T09:55:48;14.50;44.60
1011;DHT22;494;48.744;10.106;2022-12-24T09:58:23;15.70;38.50
1011;DHT22;494;48.744;10.106;2022-12-24T10:00:56;16.90;32.90
1011;DHT22;494;48.744;10.106;2022-12-24T10:03:25;17.90;24.50
1011;DHT22;494;48.744;10.106;2022-12-24T10:06:05;18.50;23.30
1011;DHT22;494;48.744;10.106;2022-12-24T10:08:47;18.70;21.60
1011;DHT22;494;48.744;10.106;2022-12-24T10:11:30;18.40;23.00
1011;DHT22;494;48.744;10.106;2022-12-24T10:14:24;17.50;24.40
1011;DHT22;494;48.744;10.106;2022-12-24T10:17:20;16.40;24.90
1011;DHT22;494;48.744;10.106;2022-12-24T10:20:23;15.60;28.20
1011;DHT22;494;48.744;10.106;2022-12-24T10:23:05;15.10;30.80
1011;DHT22;494;48.744;10.106;2022-12-24T10:25:44;14.90;32.60
1011;DHT22;494;48.744;10.106;2022-12-24T10:28:21;14.60;32.50
1011;DHT22;494;48.744;10.106;2022-12-24T10:31:00;14.80;33.60
1011;DHT22;494;48.744;10.106;2022-12-24T10:33:36;15.50;30.10
1011;DHT22;494;48.744;10.106;2022-12-24T10:36:13;15.60;28.60
1011;DHT22;494;48.744;10.106;2022-12-24T10:38:45;15.40;30.30
1011;DHT22;494;48.744;10.106;2022-12-24T10:41:14;15.40;30.80
1011;DHT22;494;48.744;10.106;2022-12-24T10:43:45;15.80;29.20
1011;DHT22;494;48.744;10.106;2022-12-24T10:46:18;17.20;25.80
1011;DHT22;494;48.744;10.106;2022-12-24T10:48:55;18.80;20.40
1011;DHT22;494;48.744;10.106;2022-12-24T10:51:36;19.50;18.00
1011;DHT22;494;48.744;10.106;2022-12-24T10:54:12;19.50;18.50
1011;DHT22;494;48.744;10.106;2022-12-24T10:57:00;19.10;19.00
1011;DHT22;494;48.744;10.106;2022-12-24T10:59:33;18.20;19.70
1011;DHT22;494;48.744;10.106;2022-12-24T11:02:24;17.70;21.50
1011;DHT22;494;48.744;10.106;2022-12-24T11:04:57;17.90;21.70
1011;DHT22;494;48.744;10.106;2022-12-24T11:07:28;18.60;18.30
1011;DHT22;494;48.744;10.106;2022-12-24T11:09:59;18.40;19.10
1011;DHT22;494;48.744;10.106;2022-12-24T11:12:33;17.90;18.80
1011;DHT22;494;48.744;10.106;2022-12-24T11:15:06;17.20;19.80
1011;DHT22;494;48.744;10.106;2022-12-24T11:17:52;16.40;22.20
1011;DHT22;494;48.744;10.106;2022-12-24T11:20:25;15.80;25.20
1011;DHT22;494;48.744;10.106;2022-12-24T11:22:56;15.80;25.40
1011;DHT22;494;48.744;10.106;2022-12-24T11:25:26;15.90;25.50
1011;DHT22;494;48.744;10.106;2022-12-24T11:28:10;16.30;23.30
1011;DHT22;494;48.744;10.106;2022-12-24T11:30:40;17.30;21.20
1011;DHT22;494;48.744;10.106;2022-12-24T11:33:17;18.70;18.30
1011;DHT22;494;48.744;10.106;2022-12-24T11:35:52;20.10;15.40
1011;DHT22;494;48.744;10.106;2022-12-24T11:38:25;21.00;14.20
1011;DHT22;494;48.744;10.106;2022-12-24T11:41:00;21.90;12.50
1011;DHT22;494;48.744;10.106;2022-12-24T11:43:37;22.50;10.90
1011;DHT22;494;48.744;10.106;2022-12-24T11:46:20;22.20;10.70
1011;DHT22;494;48.744;10.106;2022-12-24T11:49:12;21.50;12.10
1011;DHT22;494;48.744;10.106;2022-12-24T11:52:15;20.50;14.50
1011;DHT22;494;48.744;10.106;2022-12-24T11:54:58;20.20;15.30
1011;DHT22;494;48.744;10.106;2022-12-24T11:57:48;20.10;13.70
1011;DHT22;494;48.744;10.106;2022-12-24T12:00:22;19.10;16.40
1011;DHT22;494;48.744;10.106;2022-12-24T12:02:55;18.40;18.60
1011;DHT22;494;48.744;10.106;2022-12-24T12:05:30;17.50;19.40
1011;DHT22;494;48.744;10.106;2022-12-24T12:08:08;17.00;20.20
1011;DHT22;494;48.744;10.106;2022-12-24T12:10:44;16.50;22.20
1011;DHT22;494;48.744;10.106;2022-12-24T12:13:18;15.60;23.80
1011;DHT22;494;48.744;10.106;2022-12-24T12:15:59;15.30;26.90
1011;DHT22;494;48.744;10.106;2022-12-24T12:18:35;15.00;27.00
1011;DHT22;494;48.744;10.106;2022-12-24T12:21:10;14.80;28.60
1011;DHT22;494;48.744;10.106;2022-12-24T12:23:48;14.80;28.70
1011;DHT22;494;48.744;10.106;2022-12-24T12:26:23;14.60;28.50
1011;DHT22;494;48.744;10.106;2022-12-24T12:28:57;14.40;28.30
1011;DHT22;494;48.744;10.106;2022-12-24T12:31:32;14.20;29.90
1011;DHT22;494;48.744;10.106;2022-12-24T12:34:08;14.30;29.00
1011;DHT22;494;48.744;10.106;2022-12-24T12:36:44;14.40;29.00
1011;DHT22;494;48.744;10.106;2022-12-24T12:39:16;14.50;28.50
1011;DHT22;494;48.744;10.106;2022-12-24T12:41:51;14.40;28.40
1011;DHT22;494;48.744;10.106;2022-12-24T12:44:52;14.30;29.30
1011;DHT22;494;48.744;10.106;2022-12-24T12:47:45;14.20;29.30
1011;DHT22;494;48.744;10.106;2022-12-24T12:50:28;14.00;29.50
1011;DHT22;494;48.744;10.106;2022-12-24T12:53:15;14.10;31.00
1011;DHT22;494;48.744;10.106;2022-12-24T12:55:58;14.00;30.00
1011;DHT22;494;48.744;10.106;2022-12-24T12:58:37;14.10;30.80
1011;DHT22;494;48.744;10.106;2022-12-24T13:01:13;14.10;30.90
1011;DHT22;494;48.744;10.106;2022-12-24T13:04:20;14.10;31.00
1011;DHT22;494;48.744;10.106;2022-12-24T13:07:30;13.60;31.70
1011;DHT22;494;48.744;10.106;2022-12-24T13:10:42;13.70;32.10
1011;DHT22;494;48.744;10.106;2022-12-24T13:13:37;13.60;32.50
1011;DHT22;494;48.744;10.106;2022-12-24T13:16:40;13.60;33.00
1011;DHT22;494;48.744;10.106;2022-12-24T13:19:33;13.60;33.00
1011;DHT22;494;48.744;10.106;2022-12-24T13:22:14;13.80;32.40
1011;DHT22;494;48.744;10.106;2022-12-24T13:24:49;14.00;32.00
1011;DHT22;494;48.744;10.106;2022-12-24T13:27:23;14.20;31.40
1011;DHT22;494;48.744;10.106;2022-12-24T13:29:56;14.30;31.20
1011;DHT22;494;48.744;10.106;2022-12-24T13:32:38;14.00;31.00
1011;DHT22;494;48.744;10.106;2022-12-24T13:35:32;14.00;31.80
1011;DHT22;494;48.744;10.106;2022-12-24T13:38:31;14.00;31.20
1011;DHT22;494;48.744;10.106;2022-12-24T13:44:27;13.80;31.50
1011;DHT22;494;48.744;10.106;2022-12-24T13:47:30;13.70;32.30
1011;DHT22;494;48.744;10.106;2022-12-24T13:50:23;13.70;32.70
1011;DHT22;494;48.744;10.106;2022-12-24T13:53:02;13.70;31.80
1011;DHT22;494;48.744;10.106;2022-12-24T13:55:33;13.40;32.50
1011;DHT22;494;48.744;10.106;2022-12-24T13:58:03;13.30;33.20
1011;DHT22;494;48.744;10.106;2022-12-24T14:00:38;13.10;34.10
1011;DHT22;494;48.744;10.106;2022-12-24T14:03:25;13.10;34.70
1011;DHT22;494;48.744;10.106;2022-12-24T14:05:59;13.20;34.80
1011;DHT22;494;48.744;10.106;2022-12-24T14:08:34;13.20;35.00
1011;DHT22;494;48.744;10.106;2022-12-24T14:11:09;13.10;36.20
1011;DHT22;494;48.744;10.106;2022-12-24T14:14:09;13.00;36.40
1011;DHT22;494;48.744;10.106;2022-12-24T14:16:53;13.00;37.10
1011;DHT22;494;48.744;10.106;2022-12-24T14:19:28;12.90;37.80
1011;DHT22;494;48.744;10.106;2022-12-24T14:22:18;12.90;37.90
1011;DHT22;494;48.744;10.106;2022-12-24T14:24:56;12.90;38.40
1011;DHT22;494;48.744;10.106;2022-12-24T14:27:31;13.00;38.60
1011;DHT22;494;48.744;10.106;2022-12-24T14:30:07;13.00;38.30
1011;DHT22;494;48.744;10.106;2022-12-24T14:32:45;13.00;38.60
1011;DHT22;494;48.744;10.106;2022-12-24T14:35:18;13.10;38.80
1011;DHT22;494;48.744;10.106;2022-12-24T14:37:49;13.20;38.70
1011;DHT22;494;48.744;10.106;2022-12-24T14:40:26;13.30;38.60
1011;DHT22;494;48.744;10.106;2022-12-24T14:43:04;13.30;38.40
1011;DHT22;494;48.744;10.106;2022-12-24T14:45:45;13.40;39.40
1011;DHT22;494;48.744;10.106;2022-12-24T14:48:26;13.30;39.20
1011;DHT22;494;48.744;10.106;2022-12-24T14:51:08;13.20;39.70
1011;DHT22;494;48.744;10.106;2022-12-24T14:53:54;13.20;40.10
1011;DHT22;494;48.744;10.106;2022-12-24T14:56:36;13.10;40.60
1011;DHT22;494;48.744;10.106;2022-12-24T14:59:14;13.10;40.90
1011;DHT22;494;48.744;10.106;2022-12-24T15:01:43;13.10;41.30
1011;DHT22;494;48.744;10.106;2022-12-24T15:04:16;13.00;41.60
1011;DHT22;494;48.744;10.106;2022-12-24T15:06:49;12.90;42.80
1011;DHT22;494;48.744;10.106;2022-12-24T15:09:22;12.70;43.60
1011;DHT22;494;48.744;10.106;2022-12-24T15:11:56;12.70;44.60
1011;DHT22;494;48.744;10.106;2022-12-24T15:14:30;12.60;43.60
1011;DHT22;494;48.744;10.106;2022-12-24T15:17:08;12.60;43.50
1011;DHT22;494;48.744;10.106;2022-12-24T15:19:41;12.60;43.30
1011;DHT22;494;48.744;10.106;2022-12-24T15:22:21;12.60;43.20
1011;DHT22;494;48.744;10.106;2022-12-24T15:24:52;12.50;43.40
1011;DHT22;494;48.744;10.106;2022-12-24T15:27:22;12.30;43.70
1011;DHT22;494;48.744;10.106;2022-12-24T15:29:55;12.20;44.00
1011;DHT22;494;48.744;10.106;2022-12-24T15:32:24;12.10;44.60
1011;DHT22;494;48.744;10.106;2022-12-24T15:34:54;12.00;44.60
1011;DHT22;494;48.744;10.106;2022-12-24T15:37:31;11.80;44.80
1011;DHT22;494;48.744;10.106;2022-12-24T15:40:07;11.70;45.50
1011;DHT22;494;48.744;10.106;2022-12-24T15:43:12;11.50;46.00
1011;DHT22;494;48.744;10.106;2022-12-24T15:45:43;11.40;46.30
1011;DHT22;494;48.744;10.106;2022-12-24T15:48:18;11.40;46.20
1011;DHT22;494;48.744;10.106;2022-12-24T15:50:51;11.30;46.00
1011;DHT22;494;48.744;10.106;2022-12-24T15:53:25;11.30;45.80
1011;DHT22;494;48.744;10.106;2022-12-24T15:56:05;11.10;45.70
1011;DHT22;494;48.744;10.106;2022-12-24T15:58:37;10.90;46.70
1011;DHT22;494;48.744;10.106;2022-12-24T16:01:34;10.70;47.30
1011;DHT22;494;48.744;10.106;2022-12-24T16:04:11;10.60;48.20
1011;DHT22;494;48.744;10.106;2022-12-24T16:06:53;10.50;48.50
1011;DHT22;494;48.744;10.106;2022-12-24T16:09:41;10.50;48.50
1011;DHT22;494;48.744;10.106;2022-12-24T16:12:14;10.40;48.80
1011;DHT22;494;48.744;10.106;2022-12-24T16:14:47;10.40;48.80
1011;DHT22;494;48.744;10.106;2022-12-24T16:17:21;10.50;48.90
1011;DHT22;494;48.744;10.106;2022-12-24T16:19:54;10.60;48.60
1011;DHT22;494;48.744;10.106;2022-12-24T16:22:27;10.60;48.20
1011;DHT22;494;48.744;10.106;2022-12-24T16:25:21;10.70;48.00
1011;DHT22;494;48.744;10.106;2022-12-24T16:27:51;10.60;47.40
1011;DHT22;494;48.744;10.106;2022-12-24T16:30:26;10.60;47.00
1011;DHT22;494;48.744;10.106;2022-12-24T16:32:55;10.60;47.00
1011;DHT22;494;48.744;10.106;2022-12-24T16:35:25;10.70;47.00
1011;DHT22;494;48.744;10.106;2022-12-24T16:37:55;10.70;47.00
1011;DHT22;494;48.744;10.106;2022-12-24T16:40:25;10.70;46.80
1011;DHT22;494;48.744;10.106;2022-12-24T16:42:55;10.70;46.60
1011;DHT22;494;48.744;10.106;2022-12-24T16:45:42;10.80;46.60
1011;DHT22;494;48.744;10.106;2022-12-24T16:48:17;10.80;46.40
1011;DHT22;494;48.744;10.106;2022-12-24T16:50:48;10.70;46.30
1011;DHT22;494;48.744;10.106;2022-12-24T16:53:19;10.70;46.20